Weather History for Sturgis, MI

Change the Weather History Date:

Friday, January 6, 2012

  Actual Average (KHAI) Record (KHAI)
Temperature  
Mean Temperature 42 °F -  
Max Temperature 50 °F 31 °F 50 °F (1987)
Min Temperature 35 °F 15 °F -13 °F (2014)
Degree Days  
Heating Degree Days 22    
Moisture  
Dew Point 34 °F    
Average Humidity 76    
Maximum Humidity 87    
Minimum Humidity 62    
Precipitation  
Precipitation 0.00 in - - ()
Sea Level Pressure  
Sea Level Pressure 29.71 in    
Wind  
Wind Speed 1 mph (SW)    
Max Wind Speed 12 mph    
Max Gust Speed 17 mph    
Visibility 10 miles    
Events      
Averages and records for this station are not official NWS values.
T = Trace of Precipitation, MM = Missing Value Source: NWS Daily Summary

Daily Weather History Graph

Daily Weather History Graph

Search for Another Location

Airport:

Trip Planner

Search our weather history database for the weather conditions in past years. The results will help you decide how hot, cold, wet, or windy it might be!

Date:

Astronomy

Jan. 06, 2012 Rise Set
Actual Time 8:09 AM EST 5:25 PM EST
Civil Twilight 7:38 AM EST 5:57 PM EST
Nautical Twilight 7:03 AM EST 6:31 PM EST
Astronomical Twilight 6:29 AM EST 7:05 PM EST
Moon 3:15 PM EST (1/6) 5:49 AM EST (1/6)
Length of Visible Light 10h 19m
Length of Day
9h 16m
Waxing Gibbous, 93% of the Moon is Illuminated
Jan 6
Waxing Gibbous
Jan 9
Full
Jan 16
Last Quarter
Jan 23
New
Jan 30
First Quarter

Hourly Weather History & Observations

Time (EST) Temp. Windchill Dew Point Humidity Pressure Visibility Wind Dir Wind Speed Gust Speed Precip Events Conditions
12:14 AM 37.4 °F - 33.8 °F 87% 29.73 in 10.0 mi Calm Calm - N/A   Clear
12:35 AM 37.4 °F 34.9 °F 32.0 °F 81% 29.72 in 10.0 mi SW 3.5 mph - N/A   Clear
12:55 AM 37.4 °F - 32.0 °F 81% 29.72 in 10.0 mi Calm Calm - N/A   Clear
1:13 AM 37.4 °F - 32.0 °F 81% 29.72 in 10.0 mi Calm Calm - N/A   Clear
1:35 AM 37.4 °F 29.8 °F 32.0 °F 81% 29.72 in 10.0 mi SW 11.5 mph - N/A   Clear
1:54 AM 37.4 °F - 32.0 °F 81% 29.71 in 10.0 mi Calm Calm - N/A   Clear
2:15 AM 37.4 °F - 32.0 °F 81% 29.71 in 10.0 mi Calm Calm - N/A   Clear
2:35 AM 37.4 °F - 32.0 °F 81% 29.72 in 10.0 mi Calm Calm - N/A   Clear
3:15 AM 37.4 °F - 30.2 °F 75% 29.72 in 10.0 mi Calm Calm - N/A   Clear
3:34 AM 39.2 °F - 32.0 °F 75% 29.72 in 10.0 mi Calm Calm - N/A   Clear
3:55 AM 37.4 °F - 32.0 °F 81% 29.71 in 10.0 mi Calm Calm - N/A   Clear
4:15 AM 37.4 °F - 32.0 °F 81% 29.71 in 10.0 mi Calm Calm - N/A   Clear
4:34 AM 37.4 °F - 32.0 °F 81% 29.70 in 10.0 mi Calm Calm - N/A   Clear
4:55 AM 37.4 °F - 32.0 °F 81% 29.70 in 10.0 mi Calm Calm - N/A   Clear
5:15 AM 37.4 °F - 32.0 °F 81% 29.70 in 10.0 mi Calm Calm - N/A   Clear
5:34 AM 37.4 °F - 32.0 °F 81% 29.70 in 10.0 mi Calm Calm - N/A   Clear
5:55 AM 37.4 °F - 32.0 °F 81% 29.71 in 10.0 mi Calm Calm - N/A   Clear
6:15 AM 37.4 °F - 32.0 °F 81% 29.71 in 10.0 mi Calm Calm - N/A   Clear
6:34 AM 37.4 °F - 32.0 °F 81% 29.70 in 10.0 mi Calm Calm - N/A   Clear
6:55 AM 37.4 °F 34.9 °F 32.0 °F 81% 29.70 in 10.0 mi SW 3.5 mph - N/A   Clear
7:15 AM 37.4 °F 30.8 °F 32.0 °F 81% 29.70 in 10.0 mi SW 9.2 mph 17.3 mph N/A   Clear
7:34 AM 37.4 °F 30.8 °F 32.0 °F 81% 29.71 in 10.0 mi WSW 9.2 mph 17.3 mph N/A   Clear
7:55 AM 37.4 °F - 32.0 °F 81% 29.71 in 10.0 mi Calm Calm - N/A   Clear
8:14 AM 37.4 °F - 32.0 °F 81% 29.71 in 10.0 mi Calm Calm - N/A   Clear
8:35 AM 35.6 °F - 30.2 °F 81% 29.71 in 10.0 mi Calm Calm - N/A   Clear
8:55 AM 37.4 °F - 32.0 °F 81% 29.72 in 10.0 mi Calm Calm - N/A   Clear
9:14 AM 37.4 °F - 32.0 °F 81% 29.72 in 10.0 mi Calm Calm - N/A   Clear
9:35 AM 39.2 °F - 32.0 °F 75% 29.72 in 10.0 mi Calm Calm - N/A   Clear
9:55 AM 39.2 °F - 32.0 °F 75% 29.73 in 10.0 mi Calm Calm - N/A   Clear
10:15 AM 39.2 °F - 32.0 °F 75% 29.73 in 10.0 mi Calm Calm - N/A   Clear
10:35 AM 39.2 °F - 32.0 °F 75% 29.73 in 10.0 mi Calm Calm - N/A   Clear
10:54 AM 41.0 °F - 33.8 °F 76% 29.73 in 10.0 mi Calm Calm - N/A   Clear
11:15 AM 42.8 °F 38.6 °F 33.8 °F 70% 29.73 in 10.0 mi WSW 6.9 mph - N/A   Clear
11:35 AM 44.6 °F - 33.8 °F 66% 29.72 in 10.0 mi Calm Calm - N/A   Clear
11:54 AM 44.6 °F - 33.8 °F 66% 29.72 in 10.0 mi Calm Calm - N/A   Clear
12:15 PM 46.4 °F - 33.8 °F 62% 29.71 in 10.0 mi Calm Calm - N/A   Clear
1:15 PM 48.2 °F - 35.6 °F 62% 29.69 in 10.0 mi Calm Calm - N/A   Clear
1:34 PM 48.2 °F - 35.6 °F 62% 29.69 in 10.0 mi Calm Calm - N/A   Clear
1:55 PM 48.2 °F - 37.4 °F 66% 29.69 in 10.0 mi Calm Calm - N/A   Clear
2:15 PM 48.2 °F - 37.4 °F 66% 29.68 in 10.0 mi Calm Calm - N/A   Clear
2:35 PM 48.2 °F - 37.4 °F 66% 29.68 in 10.0 mi Calm Calm - N/A   Clear
2:55 PM 50.0 °F - 37.4 °F 62% 29.67 in 10.0 mi Calm Calm - N/A   Clear
3:14 PM 50.0 °F - 37.4 °F 62% 29.67 in 10.0 mi SSW 8.1 mph 16.1 mph N/A   Clear
3:35 PM 50.0 °F - 37.4 °F 62% 29.68 in 10.0 mi Calm Calm - N/A   Clear
3:54 PM 50.0 °F - 37.4 °F 62% 29.68 in 10.0 mi Calm Calm - N/A   Clear
4:15 PM 50.0 °F - 39.2 °F 66% 29.69 in 10.0 mi Calm Calm - N/A   Clear
4:35 PM 48.2 °F - 37.4 °F 66% 29.69 in 10.0 mi Calm Calm - N/A   Clear
4:54 PM 46.4 °F - 37.4 °F 71% 29.69 in 10.0 mi Calm Calm - N/A   Clear
5:15 PM 44.6 °F - 37.4 °F 76% 29.70 in 10.0 mi Calm Calm - N/A   Clear
5:54 PM 44.6 °F - 35.6 °F 71% 29.72 in 10.0 mi Calm Calm - N/A   Clear
6:15 PM 42.8 °F - 35.6 °F 76% 29.72 in 10.0 mi Calm Calm - N/A   Clear
6:34 PM 44.6 °F - 35.6 °F 71% 29.72 in 10.0 mi Calm Calm - N/A   Clear
6:55 PM 42.8 °F - 35.6 °F 76% 29.72 in 10.0 mi Calm Calm - N/A   Clear
7:15 PM 42.8 °F - 35.6 °F 76% 29.72 in 10.0 mi Calm Calm - N/A   Clear
7:34 PM 41.0 °F - 35.6 °F 81% 29.72 in 10.0 mi Calm Calm - N/A   Clear
7:55 PM 42.8 °F - 35.6 °F 76% 29.72 in 10.0 mi Calm Calm - N/A   Clear
8:15 PM 42.8 °F - 35.6 °F 76% 29.71 in 10.0 mi Calm Calm - N/A   Clear
8:34 PM 41.0 °F - 35.6 °F 81% 29.71 in 10.0 mi Calm Calm - N/A   Clear
8:55 PM 41.0 °F - 35.6 °F 81% 29.72 in 10.0 mi Calm Calm - N/A   Clear
9:15 PM 39.2 °F - 33.8 °F 81% 29.71 in 10.0 mi Calm Calm - N/A   Clear
9:34 PM 39.2 °F - 35.6 °F 87% 29.71 in 10.0 mi Calm Calm - N/A   Clear
9:55 PM 39.2 °F - 33.8 °F 81% 29.70 in 10.0 mi Calm Calm - N/A   Clear
10:14 PM 39.2 °F - 35.6 °F 87% 29.70 in 10.0 mi Calm Calm - N/A   Clear
10:35 PM 37.4 °F - 33.8 °F 87% 29.70 in 10.0 mi Calm Calm - N/A   Clear
10:55 PM 37.4 °F - 33.8 °F 87% 29.70 in 10.0 mi Calm Calm - N/A   Clear
11:14 PM 37.4 °F - 33.8 °F 87% 29.69 in 10.0 mi Calm Calm - N/A   Clear
11:35 PM 39.2 °F - 35.6 °F 87% 29.69 in 10.0 mi Calm Calm - N/A   Clear
11:55 PM 41.0 °F - 35.6 °F 81% 29.70 in 10.0 mi Calm Calm - N/A   Clear